createdAt,value
2023-02-02T00:01:31.210Z,93.46
2023-02-02T00:03:58.999Z,93.25
2023-02-02T00:06:28.539Z,92.76
2023-02-02T00:09:02.248Z,92.96
2023-02-02T00:11:29.456Z,92.33
2023-02-02T00:13:56.396Z,92.11
2023-02-02T00:16:29.350Z,91.73
2023-02-02T00:19:15.080Z,91.21
2023-02-02T00:21:43.332Z,91.38
2023-02-02T00:24:17.964Z,91.07
2023-02-02T00:26:50.454Z,90.79
2023-02-02T00:29:27.760Z,90.73
2023-02-02T00:31:55.197Z,90.51
2023-02-02T00:34:23.511Z,90.40
2023-02-02T00:36:51.515Z,90.16
2023-02-02T00:39:27.448Z,90.07
2023-02-02T00:41:55.045Z,89.80
2023-02-02T00:44:40.934Z,89.78
2023-02-02T00:47:08.002Z,89.34
2023-02-02T00:49:34.941Z,89.58
2023-02-02T00:52:02.255Z,89.26
2023-02-02T00:54:29.663Z,89.17
2023-02-02T00:56:56.635Z,89.08
2023-02-02T00:59:23.767Z,89.35
2023-02-02T01:01:50.734Z,89.34
2023-02-02T01:04:17.771Z,89.11
2023-02-02T01:06:44.746Z,89.51
2023-02-02T01:09:11.726Z,89.53
2023-02-02T01:11:38.774Z,89.24
2023-02-02T01:14:05.766Z,89.49
2023-02-02T01:16:32.882Z,89.88
2023-02-02T01:18:59.852Z,90.46
2023-02-02T01:21:26.869Z,90.62
2023-02-02T01:23:53.849Z,90.92
2023-02-02T01:26:20.825Z,91.06
2023-02-02T01:28:47.977Z,91.19
2023-02-02T01:31:19.078Z,91.55
2023-02-02T01:33:48.321Z,91.64
2023-02-02T01:36:20.341Z,92.24
2023-02-02T01:38:48.710Z,92.36
2023-02-02T01:41:23.393Z,92.19
2023-02-02T01:44:04.076Z,92.57
2023-02-02T01:46:34.795Z,92.36
2023-02-02T01:49:16.711Z,92.65
2023-02-02T01:51:59.622Z,92.81
2023-02-02T01:54:33.177Z,92.70
2023-02-02T01:57:09.981Z,92.57
2023-02-02T01:59:38.586Z,92.87
2023-02-02T02:02:06.107Z,93.07
2023-02-02T02:04:33.493Z,93.05
2023-02-02T02:07:02.984Z,93.43
2023-02-02T02:09:29.916Z,93.35
2023-02-02T02:11:57.266Z,93.52
2023-02-02T02:14:43.368Z,93.60
2023-02-02T02:17:37.857Z,94.13
2023-02-02T02:21:37.143Z,93.65
2023-02-02T02:24:37.385Z,93.63
2023-02-02T02:27:12.922Z,93.97
2023-02-02T02:29:54.841Z,94.00
2023-02-02T02:32:52.171Z,93.90
2023-02-02T02:35:59.535Z,93.86
2023-02-02T02:39:13.596Z,93.86
2023-02-02T02:41:50.646Z,93.49
2023-02-02T02:44:20.162Z,93.58
2023-02-02T02:46:48.385Z,93.82
2023-02-02T02:49:15.344Z,93.52
2023-02-02T02:51:53.896Z,93.43
2023-02-02T02:54:31.649Z,93.68
2023-02-02T02:57:17.008Z,93.56
2023-02-02T02:59:55.790Z,93.30
2023-02-02T03:03:03.346Z,93.61
2023-02-02T03:05:53.297Z,93.18
2023-02-02T03:08:47.328Z,93.36
2023-02-02T03:11:16.283Z,93.26
2023-02-02T03:13:44.668Z,93.09
2023-02-02T03:16:12.007Z,93.02
2023-02-02T03:18:39.605Z,92.87
2023-02-02T03:21:06.923Z,92.44
2023-02-02T03:23:34.781Z,92.41
2023-02-02T03:26:01.961Z,92.16
2023-02-02T03:28:29.750Z,92.30
2023-02-02T03:30:59.617Z,92.38
2023-02-02T03:33:26.701Z,91.90
2023-02-02T03:35:54.203Z,92.46
2023-02-02T03:38:21.125Z,92.25
2023-02-02T03:40:48.093Z,92.26
2023-02-02T03:43:21.478Z,92.10
2023-02-02T03:45:48.651Z,92.23
2023-02-02T03:48:15.606Z,92.08
2023-02-02T03:50:42.574Z,92.04
2023-02-02T03:53:09.501Z,92.39
2023-02-02T03:55:36.547Z,91.92
2023-02-02T03:58:03.512Z,91.84
2023-02-02T04:00:30.440Z,91.87
2023-02-02T04:02:57.388Z,92.25
2023-02-02T04:05:24.628Z,92.10
2023-02-02T04:07:51.774Z,91.56
2023-02-02T04:10:18.941Z,91.84
2023-02-02T04:12:45.979Z,91.74
2023-02-02T04:15:12.990Z,91.95
2023-02-02T04:17:39.966Z,91.65
2023-02-02T04:20:07.837Z,91.77
2023-02-02T04:22:34.758Z,91.33
2023-02-02T04:25:02.233Z,91.43
2023-02-02T04:27:32.593Z,91.41
2023-02-02T04:29:59.804Z,91.40
2023-02-02T04:32:26.719Z,91.00
2023-02-02T04:34:53.693Z,91.24
2023-02-02T04:37:20.675Z,91.38
2023-02-02T04:39:48.826Z,91.15
2023-02-02T04:42:15.838Z,91.17
2023-02-02T04:44:45.777Z,90.89
2023-02-02T04:47:13.023Z,90.80
2023-02-02T04:49:40.005Z,90.46
2023-02-02T04:52:07.463Z,90.35
2023-02-02T04:54:34.438Z,90.35
2023-02-02T04:57:01.381Z,90.36
2023-02-02T04:59:31.249Z,90.35
2023-02-02T05:02:02.281Z,90.39
2023-02-02T05:04:29.620Z,90.35
2023-02-02T05:06:56.632Z,90.37
2023-02-02T05:09:23.704Z,90.68
2023-02-02T05:11:50.670Z,90.76
2023-02-02T05:14:18.569Z,90.84
2023-02-02T05:16:45.828Z,90.56
2023-02-02T05:19:13.285Z,90.69
2023-02-02T05:21:40.296Z,90.91
2023-02-02T05:24:07.426Z,91.14
2023-02-02T05:26:35.150Z,90.89
2023-02-02T05:29:02.973Z,91.50
2023-02-02T05:31:32.048Z,91.24
2023-02-02T05:33:59.754Z,91.34
2023-02-02T05:36:26.976Z,91.65
2023-02-02T05:38:53.924Z,91.76
2023-02-02T05:41:20.853Z,91.97
2023-02-02T05:43:47.764Z,92.03
2023-02-02T05:46:14.890Z,91.99
2023-02-02T05:48:42.025Z,91.76
2023-02-02T05:51:18.302Z,91.63
2023-02-02T05:53:45.787Z,92.04
2023-02-02T05:56:13.522Z,91.72
2023-02-02T05:58:40.498Z,91.66
2023-02-02T06:01:07.547Z,91.41
2023-02-02T06:03:34.707Z,91.68
2023-02-02T06:06:02.167Z,91.16
2023-02-02T06:08:29.169Z,91.39
2023-02-02T06:10:56.081Z,90.86
2023-02-02T06:13:23.064Z,91.19
2023-02-02T06:15:50.070Z,90.90
2023-02-02T06:18:17.209Z,91.02
2023-02-02T06:20:44.277Z,91.06
2023-02-02T06:23:11.219Z,91.10
2023-02-02T06:25:41.203Z,90.91
2023-02-02T06:28:11.816Z,90.89
2023-02-02T06:30:38.867Z,90.57
2023-02-02T06:33:07.381Z,90.71
2023-02-02T06:35:35.052Z,90.37
2023-02-02T06:38:02.195Z,90.69
2023-02-02T06:40:29.779Z,90.39
2023-02-02T06:43:07.244Z,89.98
2023-02-02T06:45:38.221Z,90.47
2023-02-02T06:48:10.803Z,89.81
2023-02-02T06:50:38.524Z,89.62
2023-02-02T06:53:05.791Z,89.41
2023-02-02T06:55:32.854Z,89.75
2023-02-02T06:58:01.487Z,89.18
2023-02-02T07:00:29.962Z,89.27
2023-02-02T07:02:58.856Z,88.86
2023-02-02T07:05:30.418Z,88.61
2023-02-02T07:07:57.777Z,88.15
2023-02-02T07:11:12.447Z,87.96
2023-02-02T07:13:17.752Z,87.92
2023-02-02T07:15:46.567Z,87.63
2023-02-02T07:18:15.712Z,87.51
2023-02-02T07:20:42.790Z,87.13
2023-02-02T07:23:16.015Z,86.90
2023-02-02T07:25:43.972Z,86.66
2023-02-02T07:28:10.970Z,86.69
2023-02-02T07:30:39.974Z,86.43
2023-02-02T07:33:06.952Z,86.20
2023-02-02T07:35:33.883Z,85.97
2023-02-02T07:38:00.927Z,86.28
2023-02-02T07:40:27.938Z,86.27
2023-02-02T07:42:54.858Z,86.44
2023-02-02T07:45:27.076Z,86.51
2023-02-02T07:47:59.802Z,86.29
2023-02-02T07:50:29.498Z,85.48
2023-02-02T07:52:58.913Z,84.84
2023-02-02T07:55:28.077Z,83.60
2023-02-02T07:57:58.863Z,83.10
2023-02-02T08:00:26.812Z,82.04
2023-02-02T08:02:54.038Z,80.97
2023-02-02T08:05:22.845Z,80.38
2023-02-02T08:07:50.070Z,80.01
2023-02-02T08:10:17.346Z,80.30
2023-02-02T08:12:44.391Z,80.87
2023-02-02T08:15:12.465Z,81.07
2023-02-02T08:17:41.549Z,80.88
2023-02-02T08:20:09.457Z,79.54
2023-02-02T08:22:38.508Z,79.28
2023-02-02T08:25:06.328Z,78.87
2023-02-02T08:27:33.407Z,78.11
2023-02-02T08:30:00.371Z,77.40
2023-02-02T08:32:30.305Z,76.50
2023-02-02T08:34:57.279Z,75.74
2023-02-02T08:37:24.202Z,75.14
2023-02-02T08:39:51.579Z,74.44
2023-02-02T08:42:18.531Z,73.64
2023-02-02T08:45:59.747Z,73.74
2023-02-02T08:47:37.091Z,73.64
2023-02-02T08:50:04.636Z,73.18
2023-02-02T08:52:31.538Z,72.50
2023-02-02T08:55:01.365Z,71.34
2023-02-02T08:57:28.791Z,70.35
2023-02-02T08:59:55.748Z,69.49
2023-02-02T09:02:22.815Z,68.85
2023-02-02T09:04:52.276Z,68.45
2023-02-02T09:07:21.168Z,68.16
2023-02-02T09:09:48.315Z,68.12
2023-02-02T09:12:16.748Z,68.15
2023-02-02T09:14:43.775Z,68.03
2023-02-02T09:17:10.737Z,67.80
2023-02-02T09:19:37.708Z,67.86
2023-02-02T09:22:04.655Z,68.18
2023-02-02T09:24:31.648Z,68.84
2023-02-02T09:27:03.038Z,69.37
2023-02-02T09:29:30.054Z,69.94
2023-02-02T09:31:57.042Z,70.03
2023-02-02T09:34:24.057Z,69.95
2023-02-02T09:36:51.818Z,70.25
2023-02-02T09:39:19.530Z,70.26
2023-02-02T09:42:15.180Z,70.58
2023-02-02T09:45:09.995Z,70.86
2023-02-02T09:47:51.289Z,70.67
2023-02-02T09:50:29.709Z,70.70
2023-02-02T09:53:54.697Z,70.63
2023-02-02T09:56:55.796Z,70.78
2023-02-02T09:59:41.886Z,71.06
2023-02-02T10:02:39.355Z,71.04
2023-02-02T10:05:21.444Z,71.45
2023-02-02T10:07:58.422Z,71.37
2023-02-02T10:10:37.061Z,71.31
2023-02-02T10:13:33.621Z,70.66
2023-02-02T10:16:18.176Z,70.09
2023-02-02T10:19:03.839Z,70.56
2023-02-02T10:21:52.877Z,70.27
2023-02-02T10:24:26.043Z,70.63
2023-02-02T10:27:04.225Z,70.47
2023-02-02T10:29:49.104Z,70.10
2023-02-02T10:32:29.308Z,69.82
2023-02-02T10:35:30.619Z,70.19
2023-02-02T10:38:37.879Z,70.41
2023-02-02T10:41:25.698Z,70.02
2023-02-02T10:44:26.030Z,70.06
2023-02-02T10:46:56.619Z,69.38
2023-02-02T10:49:35.483Z,68.78
2023-02-02T10:52:21.772Z,68.11
2023-02-02T10:55:03.931Z,67.51
2023-02-02T10:57:53.169Z,67.48
2023-02-02T11:00:34.709Z,67.38
2023-02-02T11:03:04.906Z,67.67
2023-02-02T11:05:50.777Z,67.92
2023-02-02T11:08:20.167Z,67.73
2023-02-02T11:10:53.116Z,68.08
2023-02-02T11:13:33.747Z,68.17
2023-02-02T11:16:15.999Z,68.11
2023-02-02T11:18:49.071Z,67.84
2023-02-02T11:21:38.943Z,67.68
2023-02-02T11:24:19.415Z,67.26
2023-02-02T11:27:04.083Z,66.62
2023-02-02T11:29:45.914Z,66.69
2023-02-02T11:32:35.487Z,67.14
2023-02-02T11:35:08.362Z,66.96
2023-02-02T11:37:58.241Z,67.13
2023-02-02T11:40:39.826Z,67.30
2023-02-02T11:44:05.235Z,67.50
2023-02-02T11:46:34.856Z,67.40
2023-02-02T11:49:19.032Z,67.47
2023-02-02T11:52:15.290Z,67.03
2023-02-02T11:54:51.736Z,66.96
2023-02-02T11:57:23.459Z,67.44
2023-02-02T12:00:10.716Z,67.43
2023-02-02T12:02:37.872Z,67.48
2023-02-02T12:05:14.591Z,67.65
2023-02-02T12:07:44.999Z,68.05
2023-02-02T12:10:36.891Z,68.75
2023-02-02T12:13:48.164Z,69.85
2023-02-02T12:16:46.184Z,71.30
2023-02-02T12:20:01.986Z,72.66
2023-02-02T12:23:00.793Z,74.14
2023-02-02T12:26:11.454Z,75.55
2023-02-02T12:29:20.042Z,76.60
2023-02-02T12:32:02.181Z,77.22
2023-02-02T12:35:21.522Z,78.06
2023-02-02T12:38:21.103Z,77.93
2023-02-02T12:41:24.199Z,78.10
2023-02-02T12:44:05.136Z,77.54
2023-02-02T12:46:54.678Z,77.28
2023-02-02T12:50:05.959Z,77.34
2023-02-02T12:52:36.806Z,77.48
2023-02-02T12:55:25.411Z,77.46
2023-02-02T12:57:55.394Z,77.47
2023-02-02T13:00:35.347Z,77.36
2023-02-02T13:03:30.143Z,77.16
2023-02-02T13:06:56.897Z,76.99
2023-02-02T13:09:44.658Z,76.49
2023-02-02T13:12:14.819Z,76.79
2023-02-02T13:14:57.753Z,76.49
2023-02-02T13:17:32.862Z,76.22
2023-02-02T13:20:14.739Z,75.48
2023-02-02T13:22:44.663Z,75.46
2023-02-02T13:25:33.166Z,74.85
2023-02-02T13:28:01.140Z,74.97
2023-02-02T13:30:33.084Z,74.44
2023-02-02T13:33:26.059Z,74.28
2023-02-02T13:35:58.099Z,74.06
2023-02-02T13:38:30.421Z,73.68
2023-02-02T13:41:02.262Z,73.88
2023-02-02T13:44:00.141Z,73.42
2023-02-02T13:46:36.576Z,73.44
2023-02-02T13:49:16.244Z,73.16
2023-02-02T13:52:13.007Z,72.95
2023-02-02T13:55:26.528Z,72.54
2023-02-02T13:58:17.691Z,72.35
2023-02-02T14:00:57.715Z,72.21
2023-02-02T14:03:42.729Z,72.01
2023-02-02T14:06:19.580Z,71.80
2023-02-02T14:09:01.052Z,72.22
2023-02-02T14:11:39.451Z,71.70
2023-02-02T14:14:37.041Z,71.89
2023-02-02T14:17:18.904Z,71.61
2023-02-02T14:20:04.724Z,71.98
2023-02-02T14:22:50.950Z,71.84
2023-02-02T14:25:30.156Z,71.91
2023-02-02T14:28:12.852Z,72.00
2023-02-02T14:30:40.849Z,71.75
2023-02-02T14:33:28.558Z,71.68
2023-02-02T14:36:01.913Z,71.60
2023-02-02T14:38:57.463Z,71.47
2023-02-02T14:41:53.315Z,71.36
2023-02-02T14:44:20.374Z,71.16
2023-02-02T14:46:49.291Z,71.42
2023-02-02T14:49:30.299Z,71.63
2023-02-02T14:52:02.247Z,71.49
2023-02-02T14:54:41.438Z,71.24
2023-02-02T14:57:30.552Z,70.90
2023-02-02T15:00:00.915Z,71.33
2023-02-02T15:02:36.128Z,71.55
2023-02-02T15:05:34.172Z,71.48
2023-02-02T15:08:27.922Z,71.37
2023-02-02T15:11:24.381Z,71.42
2023-02-02T15:14:01.624Z,71.37
2023-02-02T15:16:32.003Z,71.70
2023-02-02T15:19:11.310Z,72.05
2023-02-02T15:21:40.905Z,71.97
2023-02-02T15:24:25.105Z,71.93
2023-02-02T15:26:54.625Z,72.25
2023-02-02T15:29:42.658Z,72.13
2023-02-02T15:32:17.578Z,72.39
2023-02-02T15:34:50.362Z,72.47
2023-02-02T15:37:23.827Z,72.63
2023-02-02T15:39:59.874Z,72.41
2023-02-02T15:42:55.598Z,72.86
2023-02-02T15:45:29.337Z,72.50
2023-02-02T15:48:06.113Z,72.62
2023-02-02T15:50:33.212Z,72.80
2023-02-02T15:53:00.311Z,72.60
2023-02-02T15:55:35.900Z,72.34
2023-02-02T15:58:03.824Z,72.78
2023-02-02T16:00:34.567Z,72.58
2023-02-02T16:03:19.742Z,72.70
2023-02-02T16:05:54.405Z,72.69
2023-02-02T16:08:34.210Z,72.88
2023-02-02T16:11:08.296Z,72.92
2023-02-02T16:13:36.937Z,72.97
2023-02-02T16:16:07.872Z,72.80
2023-02-02T16:18:36.239Z,73.19
2023-02-02T16:21:14.573Z,72.93
2023-02-02T16:23:43.447Z,73.38
2023-02-02T16:26:15.445Z,73.16
2023-02-02T16:28:44.492Z,73.13
2023-02-02T16:31:14.227Z,73.46
2023-02-02T16:33:43.137Z,73.34
2023-02-02T16:36:26.895Z,73.52
2023-02-02T16:38:57.276Z,73.71
2023-02-02T16:41:37.020Z,73.88
2023-02-02T16:44:39.295Z,74.01
2023-02-02T16:47:30.409Z,73.83
2023-02-02T16:50:12.240Z,74.15
2023-02-02T16:52:54.011Z,74.27
2023-02-02T16:55:22.506Z,74.21
2023-02-02T16:57:52.567Z,74.26
2023-02-02T17:00:30.734Z,74.58
2023-02-02T17:03:20.021Z,74.66
2023-02-02T17:05:53.589Z,74.55
2023-02-02T17:08:31.795Z,74.61
2023-02-02T17:11:27.184Z,74.91
2023-02-02T17:13:54.910Z,74.64
2023-02-02T17:16:26.988Z,74.93
2023-02-02T17:18:54.088Z,74.68
2023-02-02T17:21:24.405Z,74.81
2023-02-02T17:23:54.234Z,74.61
2023-02-02T17:26:21.603Z,74.87
2023-02-02T17:29:00.335Z,74.68
2023-02-02T17:31:27.441Z,74.90
2023-02-02T17:33:54.484Z,75.02
2023-02-02T17:36:24.255Z,75.09
2023-02-02T17:38:51.285Z,75.16
2023-02-02T17:41:18.181Z,75.16
2023-02-02T17:43:45.380Z,75.04
2023-02-02T17:46:13.474Z,75.41
2023-02-02T17:48:40.682Z,75.33
2023-02-02T17:51:16.873Z,75.39
2023-02-02T17:53:44.852Z,75.39
2023-02-02T17:56:11.810Z,75.36
2023-02-02T17:58:38.770Z,75.68
2023-02-02T18:01:06.451Z,75.80
2023-02-02T18:03:41.370Z,75.78
2023-02-02T18:06:09.890Z,75.71
2023-02-02T18:08:36.858Z,75.63
2023-02-02T18:11:03.970Z,76.04
2023-02-02T18:13:33.814Z,75.86
2023-02-02T18:16:00.949Z,76.05
2023-02-02T18:18:31.555Z,76.24
2023-02-02T18:20:59.046Z,76.33
2023-02-02T18:23:26.433Z,76.53
2023-02-02T18:25:54.995Z,76.71
2023-02-02T18:28:21.966Z,76.57
2023-02-02T18:30:50.485Z,76.86
2023-02-02T18:33:19.723Z,76.88
2023-02-02T18:35:50.201Z,76.99
2023-02-02T18:38:18.043Z,76.94
2023-02-02T18:40:45.152Z,77.00
2023-02-02T18:43:12.112Z,77.27
2023-02-02T18:45:41.680Z,77.25
2023-02-02T18:48:11.172Z,77.30
2023-02-02T18:50:38.091Z,77.56
2023-02-02T18:53:06.701Z,77.52
2023-02-02T18:55:33.617Z,77.64
2023-02-02T18:58:01.141Z,78.02
2023-02-02T19:00:28.230Z,78.15
2023-02-02T19:02:55.174Z,78.03
2023-02-02T19:05:47.361Z,78.17
2023-02-02T19:08:14.369Z,78.35
2023-02-02T19:10:44.243Z,78.51
2023-02-02T19:13:19.408Z,78.73
2023-02-02T19:15:51.485Z,78.64
2023-02-02T19:18:27.038Z,78.79
2023-02-02T19:20:54.025Z,79.02
2023-02-02T19:23:23.806Z,79.04
2023-02-02T19:25:56.228Z,79.15
2023-02-02T19:28:30.627Z,79.19
2023-02-02T19:31:01.105Z,79.53
2023-02-02T19:33:42.234Z,79.68
2023-02-02T19:36:24.325Z,79.76
2023-02-02T19:39:00.527Z,79.87
2023-02-02T19:41:27.854Z,80.09
2023-02-02T19:44:16.676Z,80.17
2023-02-02T19:46:49.847Z,80.48
2023-02-02T19:49:33.943Z,80.47
2023-02-02T19:52:10.404Z,80.47
2023-02-02T19:54:43.235Z,80.51
2023-02-02T19:57:13.136Z,80.42
2023-02-02T19:59:42.817Z,80.72
2023-02-02T20:02:47.046Z,80.77
2023-02-02T20:05:20.250Z,80.98
2023-02-02T20:07:53.441Z,81.08
2023-02-02T20:10:25.622Z,80.83
2023-02-02T20:12:53.494Z,81.05
2023-02-02T20:15:35.039Z,80.61
2023-02-02T20:18:14.113Z,80.62
2023-02-02T20:20:45.268Z,80.68
2023-02-02T20:23:43.954Z,80.61
2023-02-02T20:26:36.817Z,80.49
2023-02-02T20:29:38.808Z,80.63
2023-02-02T20:32:20.798Z,80.55
2023-02-02T20:34:50.777Z,80.44
2023-02-02T20:37:26.874Z,80.39
2023-02-02T20:40:07.071Z,80.45
2023-02-02T20:42:34.528Z,80.53
2023-02-02T20:45:02.321Z,80.59
2023-02-02T20:47:30.053Z,80.29
2023-02-02T20:50:00.421Z,80.34
2023-02-02T20:52:30.987Z,80.31
2023-02-02T20:54:58.117Z,80.43
2023-02-02T20:57:25.070Z,80.54
2023-02-02T20:59:57.502Z,80.52
2023-02-02T21:02:26.402Z,80.69
2023-02-02T21:04:54.467Z,80.86
2023-02-02T21:07:22.147Z,80.92
2023-02-02T21:09:50.918Z,80.97
2023-02-02T21:12:18.531Z,81.15
2023-02-02T21:14:45.550Z,80.98
2023-02-02T21:17:15.909Z,81.25
2023-02-02T21:19:44.001Z,81.23
2023-02-02T21:22:11.928Z,81.64
2023-02-02T21:24:39.045Z,81.60
2023-02-02T21:27:06.078Z,81.74
2023-02-02T21:29:35.806Z,82.03
2023-02-02T21:32:03.999Z,82.05
2023-02-02T21:34:31.739Z,82.19
2023-02-02T21:36:59.583Z,82.29
2023-02-02T21:39:35.117Z,82.70
2023-02-02T21:42:10.234Z,82.58
2023-02-02T21:44:58.844Z,82.75
2023-02-02T21:47:50.436Z,82.84
2023-02-02T21:50:34.195Z,82.90
2023-02-02T21:53:25.676Z,83.07
2023-02-02T21:55:58.204Z,83.12
2023-02-02T21:58:35.003Z,83.22
2023-02-02T22:01:24.371Z,83.45
2023-02-02T22:03:51.445Z,83.59
2023-02-02T22:06:21.077Z,83.86
2023-02-02T22:08:51.682Z,84.00
2023-02-02T22:11:29.862Z,84.12
2023-02-02T22:14:26.406Z,84.21
2023-02-02T22:16:58.027Z,84.15
2023-02-02T22:19:32.362Z,84.36
2023-02-02T22:22:27.088Z,84.32
2023-02-02T22:25:26.880Z,84.43
2023-02-02T22:28:00.005Z,84.66
2023-02-02T22:30:39.114Z,84.57
2023-02-02T22:33:10.165Z,84.87
2023-02-02T22:35:37.848Z,84.87
2023-02-02T22:38:05.969Z,85.11
2023-02-02T22:40:35.767Z,84.97
2023-02-02T22:43:05.738Z,85.22
2023-02-02T22:45:33.643Z,85.24
2023-02-02T22:48:00.772Z,85.44
2023-02-02T22:50:31.242Z,85.34
2023-02-02T22:52:58.892Z,85.44
2023-02-02T22:55:25.885Z,85.47
2023-02-02T22:57:54.759Z,85.62
2023-02-02T23:00:27.390Z,85.84
2023-02-02T23:02:58.029Z,86.00
2023-02-02T23:05:26.546Z,85.68
2023-02-02T23:07:53.968Z,85.84
2023-02-02T23:10:26.167Z,86.03
2023-02-02T23:12:55.691Z,86.04
2023-02-02T23:15:22.753Z,86.05
2023-02-02T23:17:49.708Z,85.91
2023-02-02T23:20:17.556Z,86.03
2023-02-02T23:22:44.744Z,86.03
2023-02-02T23:25:13.574Z,86.13
2023-02-02T23:27:40.937Z,86.38
2023-02-02T23:30:10.634Z,86.22
2023-02-02T23:32:37.714Z,86.45
2023-02-02T23:35:05.981Z,86.56
2023-02-02T23:37:33.428Z,86.39
2023-02-02T23:40:00.427Z,86.56
2023-02-02T23:42:27.380Z,86.49
2023-02-02T23:44:54.326Z,86.71
2023-02-02T23:47:21.399Z,86.78
2023-02-02T23:49:48.415Z,86.61
2023-02-02T23:52:15.484Z,86.86
2023-02-02T23:54:44.934Z,86.74
2023-02-02T23:57:12.044Z,86.81
2023-02-02T23:59:38.949Z,86.82
